Time;durP1;ratioP1;P1;durP2;ratioP2;P2;SDS_P1;SDS_P2;PMS_P1;PMS_P2;Temp;Humidity;BMP_temperature;BMP_pressure;BME280_temperature;BME280_humidity;BME280_pressure;Samples;Min_cycle;Max_cycle;Signal;HPM_P1;HPM_P2
2021/04/09 00:00:27;;;;;;;24.85;11.98;;;;;;;3.28;62.84;100699.88;3567509;40;20052;-76
2021/04/09 00:02:56;;;;;;;26.38;11.48;;;;;;;3.30;62.56;100699.88;3568289;40;20089;-77
2021/04/09 00:05:24;;;;;;;23.38;9.85;;;;;;;3.36;62.41;100703.34;3567945;40;20399;-76
2021/04/09 00:07:50;;;;;;;21.33;10.40;;;;;;;3.38;62.18;100699.88;3566927;40;20048;-76
2021/04/09 00:10:22;;;;;;;19.70;9.55;;;;;;;3.35;62.26;100708.53;3567300;40;20030;-77
2021/04/09 00:12:57;;;;;;;19.67;9.77;;;;;;;3.35;62.29;100713.69;3568280;40;20040;-76
2021/04/09 00:15:24;;;;;;;20.27;9.45;;;;;;;3.33;61.95;100715.41;3568056;40;20029;-77
2021/04/09 00:18:01;;;;;;;18.55;10.27;;;;;;;3.29;62.17;100714.56;3566662;40;20038;-76
2021/04/09 00:20:28;;;;;;;20.25;9.15;;;;;;;3.26;62.15;100708.50;3565435;40;20041;-77
2021/04/09 00:22:55;;;;;;;20.40;10.25;;;;;;;3.22;62.24;100718.03;3566411;40;20132;-77
2021/04/09 00:25:22;;;;;;;19.05;9.45;;;;;;;3.18;62.21;100713.72;3567919;40;20077;-76
2021/04/09 00:27:48;;;;;;;18.73;9.40;;;;;;;3.16;62.05;100712.00;3568713;40;20065;-77
2021/04/09 00:30:19;;;;;;;19.15;9.27;;;;;;;3.13;62.05;100706.81;3567849;40;20160;-77
2021/04/09 00:32:46;;;;;;;18.20;9.63;;;;;;;3.12;62.20;100713.69;3568672;40;20065;-77
2021/04/09 00:35:13;;;;;;;15.55;8.57;;;;;;;3.10;61.79;100715.44;3568500;40;20430;-76
2021/04/09 00:37:40;;;;;;;19.08;9.57;;;;;;;3.08;61.87;100711.97;3567436;40;20069;-76
2021/04/09 00:40:08;;;;;;;17.95;8.93;;;;;;;3.07;62.01;100707.66;3568828;40;20033;-76
2021/04/09 00:42:34;;;;;;;22.15;9.00;;;;;;;3.06;61.67;100711.13;3568883;40;20043;-77
2021/04/09 00:45:00;;;;;;;23.75;10.60;;;;;;;3.01;61.60;100716.31;3568866;40;20034;-76
2021/04/09 00:47:27;;;;;;;16.10;8.45;;;;;;;2.99;61.78;100714.59;3568793;40;20069;-76
2021/04/09 00:49:53;;;;;;;18.48;7.95;;;;;;;2.96;61.57;100712.88;3568379;40;20291;-77
2021/04/09 00:52:21;;;;;;;17.83;9.32;;;;;;;2.92;61.71;100713.72;3568782;40;20026;-76
2021/04/09 00:54:49;;;;;;;16.25;8.65;;;;;;;2.89;61.83;100707.66;3567949;40;20033;-76
2021/04/09 00:57:16;;;;;;;15.60;7.80;;;;;;;2.87;61.77;100714.56;3560886;40;20089;-76
2021/04/09 00:59:43;;;;;;;18.33;8.73;;;;;;;2.85;61.71;100714.56;3568182;40;20029;-78
2021/04/09 01:02:10;;;;;;;20.27;8.77;;;;;;;2.85;61.75;100716.31;3567954;40;20053;-76
2021/04/09 01:04:36;;;;;;;20.30;8.93;;;;;;;2.85;61.59;100716.31;3567986;40;20065;-76
2021/04/09 01:07:03;;;;;;;19.17;9.02;;;;;;;2.87;61.77;100715.44;3564457;40;20081;-77
2021/04/09 01:09:29;;;;;;;20.83;10.48;;;;;;;2.88;61.65;100718.88;3567946;40;20418;-77
2021/04/09 01:11:57;;;;;;;22.30;11.35;;;;;;;2.85;61.57;100711.13;3568279;40;20411;-76
2021/04/09 01:14:23;;;;;;;25.77;11.25;;;;;;;2.84;61.54;100719.75;3566695;40;20047;-77
2021/04/09 01:16:55;;;;;;;21.90;10.15;;;;;;;2.77;61.66;100728.38;3568199;40;20029;-77
2021/04/09 01:20:10;;;;;;;24.83;11.48;;;;;;;2.72;61.96;100728.41;3567446;40;20042;-76
2021/04/09 01:22:43;;;;;;;22.92;10.20;;;;;;;2.66;61.85;100726.63;3550240;40;20314;-77
2021/04/09 01:25:23;;;;;;;26.33;12.43;;;;;;;2.60;62.05;100718.88;3567753;40;20282;-76
2021/04/09 01:28:07;;;;;;;31.65;12.40;;;;;;;2.60;62.07;100720.59;3567443;40;20077;-76
2021/04/09 01:30:52;;;;;;;27.73;13.32;;;;;;;2.57;61.96;100716.28;3568738;40;20046;-77
2021/04/09 01:33:22;;;;;;;23.80;11.60;;;;;;;2.58;61.98;100711.97;3568230;40;20308;-78
2021/04/09 01:35:53;;;;;;;24.52;11.65;;;;;;;2.55;61.84;100715.41;3568585;40;20077;-78
2021/04/09 01:38:23;;;;;;;24.20;10.85;;;;;;;2.52;62.06;100704.19;3568103;40;20038;-78
2021/04/09 01:40:53;;;;;;;23.63;10.63;;;;;;;2.50;62.08;100709.38;3567143;40;20041;-77
2021/04/09 01:43:20;;;;;;;25.25;10.63;;;;;;;2.48;62.13;100711.06;3567124;40;20066;-77
2021/04/09 01:45:49;;;;;;;23.75;10.77;;;;;;;2.45;61.99;100713.66;3567386;40;20036;-78
2021/04/09 01:48:17;;;;;;;18.60;9.95;;;;;;;2.42;62.17;100711.94;3568567;40;20121;-78
2021/04/09 01:50:45;;;;;;;21.63;10.00;;;;;;;2.39;61.96;100706.75;3568731;40;20051;-76
2021/04/09 01:53:13;;;;;;;21.55;11.23;;;;;;;2.37;62.12;100705.03;3568541;40;20119;-77
2021/04/09 01:55:45;;;;;;;26.42;11.98;;;;;;;2.35;62.23;100701.56;3568019;40;20146;-76
2021/04/09 01:58:12;;;;;;;;;;;;;;;2.50;61.90;100704.19;3568648;40;20030;-76
2021/04/09 02:00:39;;;;;;;30.55;13.27;;;;;;;2.37;61.86;100707.63;3568398;40;19937;-76
2021/04/09 02:03:06;;;;;;;24.30;10.85;;;;;;;2.32;61.96;100709.34;3568420;40;20065;-77
2021/04/09 02:05:34;;;;;;;23.40;11.30;;;;;;;2.31;62.13;100708.47;3568445;40;20040;-77
2021/04/09 02:08:04;;;;;;;32.65;11.18;;;;;;;2.31;62.07;100707.63;3567581;40;20328;-78
2021/04/09 02:10:31;;;;;;;22.67;10.52;;;;;;;2.31;62.07;100710.19;3566872;40;20068;-77
2021/04/09 02:12:58;;;;;;;25.48;11.05;;;;;;;2.29;62.05;100710.19;3568838;40;20046;-78
2021/04/09 02:15:26;;;;;;;20.77;10.20;;;;;;;2.28;62.15;100702.41;3568638;40;20279;-77
2021/04/09 02:17:53;;;;;;;25.85;10.85;;;;;;;2.27;62.15;100708.44;3570147;40;20145;-77
2021/04/09 02:20:20;;;;;;;24.98;11.50;;;;;;;2.26;62.14;100714.47;3568713;40;20040;-77
2021/04/09 02:22:48;;;;;;;24.35;10.73;;;;;;;2.23;62.20;100709.28;3569890;40;20037;-75
2021/04/09 02:25:18;;;;;;;24.50;10.90;;;;;;;2.19;62.33;100705.84;3569982;40;20034;-76
2021/04/09 02:27:46;;;;;;;21.30;11.07;;;;;;;2.17;62.27;100712.72;3567403;40;20070;-75
2021/04/09 02:30:14;;;;;;;25.33;12.82;;;;;;;2.12;62.47;100706.69;3570121;40;20077;-75
2021/04/09 02:32:40;;;;;;;22.58;11.10;;;;;;;2.09;62.47;100710.13;3569419;40;20030;-75
2021/04/09 02:35:09;;;;;;;26.13;12.23;;;;;;;2.06;62.61;100720.44;3569768;40;20375;-77
2021/04/09 02:37:36;;;;;;;28.73;12.15;;;;;;;2.05;62.53;100721.28;3569633;40;20038;-77
2021/04/09 02:40:07;;;;;;;24.50;11.93;;;;;;;2.01;62.57;100714.41;3569375;40;20124;-76
2021/04/09 02:42:35;;;;;;;25.23;11.32;;;;;;;1.99;62.43;100720.44;3560986;40;20124;-76
2021/04/09 02:45:03;;;;;;;23.00;11.45;;;;;;;1.96;62.83;100716.09;3558538;40;20065;-77
2021/04/09 02:47:31;;;;;;;20.90;10.68;;;;;;;1.92;62.79;100714.38;3557979;40;20333;-78
2021/04/09 02:50:01;;;;;;;21.67;11.38;;;;;;;1.89;62.71;100704.03;3559285;40;20276;-78
2021/04/09 02:52:31;;;;;;;23.20;11.73;;;;;;;1.90;62.63;100716.09;3559293;40;20050;-78
2021/04/09 02:55:01;;;;;;;25.20;11.10;;;;;;;1.85;62.93;100715.19;3559553;40;20034;-77
2021/04/09 02:57:29;;;;;;;23.75;11.43;;;;;;;1.83;62.90;100714.31;3559234;40;20419;-78
2021/04/09 02:59:58;;;;;;;23.50;11.30;;;;;;;1.80;62.96;100714.31;3559325;40;20296;-77
2021/04/09 03:02:26;;;;;;;26.92;11.15;;;;;;;1.78;63.15;100705.69;3559592;40;20042;-78
2021/04/09 03:04:53;;;;;;;25.63;10.57;;;;;;;1.79;62.92;100710.00;3559037;40;20297;-77
2021/04/09 03:07:20;;;;;;;24.10;10.40;;;;;;;1.77;62.99;100710.00;3560686;40;20413;-76
2021/04/09 03:09:47;;;;;;;20.02;10.75;;;;;;;1.76;63.05;100712.56;3567373;40;20065;-77
2021/04/09 03:12:14;;;;;;;22.35;10.90;;;;;;;1.75;63.08;100716.88;3569348;40;20204;-77
2021/04/09 03:14:42;;;;;;;18.23;10.85;;;;;;;1.74;63.13;100712.56;3568111;40;20029;-78
2021/04/09 03:17:12;;;;;;;19.58;9.20;;;;;;;1.70;63.19;100713.41;3568115;40;20033;-77
2021/04/09 03:19:38;;;;;;;24.87;11.57;;;;;;;1.69;63.17;100721.16;3568350;40;20070;-76
2021/04/09 03:22:10;;;;;;;22.60;11.43;;;;;;;1.66;63.45;100709.06;3568961;40;20037;-76
2021/04/09 03:24:36;;;;;;;25.27;10.88;;;;;;;1.67;63.34;100704.78;3568633;40;20077;-77
2021/04/09 03:27:03;;;;;;;25.33;11.13;;;;;;;1.66;63.47;100710.78;3568732;40;20049;-78
2021/04/09 03:29:30;;;;;;;22.13;10.45;;;;;;;1.65;63.36;100709.06;3568939;40;20030;-78
2021/04/09 03:31:56;;;;;;;20.77;11.70;;;;;;;1.63;63.32;100695.25;3569251;40;20070;-76
2021/04/09 03:34:23;;;;;;;26.30;11.52;;;;;;;1.61;63.51;100702.16;3568810;40;20041;-76
2021/04/09 03:36:49;;;;;;;21.77;10.35;;;;;;;1.61;63.36;100704.72;3567808;40;20318;-75
2021/04/09 03:39:16;;;;;;;26.02;11.40;;;;;;;1.59;63.41;100701.28;3568949;40;20082;-76
2021/04/09 03:41:42;;;;;;;22.10;11.95;;;;;;;1.57;63.51;100710.75;3564698;40;20341;-76
2021/04/09 03:44:09;;;;;;;28.92;11.43;;;;;;;1.56;63.46;100699.53;3559357;40;20030;-77
2021/04/09 03:46:36;;;;;;;25.92;10.93;;;;;;;1.56;63.32;100701.25;3559141;40;20045;-76
2021/04/09 03:49:02;;;;;;;23.83;11.27;;;;;;;1.56;63.47;100693.50;3558835;40;20041;-76
2021/04/09 03:51:30;;;;;;;28.00;12.13;;;;;;;1.53;63.34;100690.06;3559667;40;20062;-78
2021/04/09 03:53:57;;;;;;;23.08;11.60;;;;;;;1.55;63.52;100691.78;3558865;40;20123;-76
2021/04/09 03:56:23;;;;;;;21.80;11.75;;;;;;;1.55;63.55;100689.19;3559734;40;20074;-76
2021/04/09 03:58:50;;;;;;;27.45;12.25;;;;;;;1.56;63.33;100694.38;3559143;40;20041;-76
2021/04/09 04:01:16;;;;;;;22.38;11.55;;;;;;;1.57;63.59;100679.72;3558849;40;20050;-75
2021/04/09 04:03:42;;;;;;;22.63;11.65;;;;;;;1.58;63.49;100681.47;3558747;40;20311;-76
2021/04/09 04:06:09;;;;;;;30.40;12.80;;;;;;;1.59;63.45;100688.34;3559359;40;20387;-76
2021/04/09 04:08:36;;;;;;;27.05;11.70;;;;;;;1.61;63.51;100681.47;3559126;40;20041;-77
2021/04/09 04:11:02;;;;;;;26.05;11.88;;;;;;;1.65;63.60;100683.22;3558832;40;20399;-78
2021/04/09 04:13:28;;;;;;;28.88;12.23;;;;;;;1.69;63.37;100684.97;3567795;40;20148;-76
2021/04/09 04:15:55;;;;;;;28.33;14.27;;;;;;;1.71;63.29;100671.19;3569099;40;20061;-76
2021/04/09 04:18:21;;;;;;;25.90;14.38;;;;;;;1.75;63.35;100670.34;3568306;40;20284;-76
2021/04/09 04:20:47;;;;;;;36.45;15.20;;;;;;;1.81;63.10;100669.50;3568721;40;20045;-77
2021/04/09 04:23:13;;;;;;;26.52;13.95;;;;;;;1.87;63.11;100666.06;3568281;40;20071;-75
2021/04/09 04:25:40;;;;;;;33.30;15.80;;;;;;;1.90;63.09;100668.69;3568110;40;20037;-76
2021/04/09 04:28:07;;;;;;;33.88;14.55;;;;;;;1.96;62.95;100674.72;3568361;40;20038;-76
2021/04/09 04:30:33;;;;;;;29.27;14.57;;;;;;;2.02;62.90;100686.81;3565478;40;20292;-76
2021/04/09 04:32:59;;;;;;;24.48;13.80;;;;;;;2.06;62.75;100676.47;3558961;40;20040;-77
2021/04/09 04:35:26;;;;;;;27.17;14.02;;;;;;;2.12;62.68;100678.25;3559314;40;20070;-76
2021/04/09 04:37:52;;;;;;;32.63;14.88;;;;;;;2.21;62.40;100685.16;3558743;40;20040;-76
2021/04/09 04:40:18;;;;;;;26.63;13.50;;;;;;;2.29;62.48;100683.44;3564617;40;20038;-75
2021/04/09 04:42:45;;;;;;;28.35;15.15;;;;;;;2.34;62.35;100681.75;3565958;40;20040;-77
2021/04/09 04:45:12;;;;;;;34.30;17.25;;;;;;;2.39;62.42;100690.38;3567935;40;20169;-76
2021/04/09 04:47:38;;;;;;;34.17;17.23;;;;;;;2.49;62.11;100694.69;3565976;40;20416;-77
2021/04/09 04:50:07;;;;;;;28.08;16.38;;;;;;;2.57;62.19;100692.13;3564736;40;20043;-77
2021/04/09 04:52:33;;;;;;;33.40;16.48;;;;;;;2.65;62.03;100687.81;3565081;40;20055;-77
2021/04/09 04:54:59;;;;;;;28.05;15.52;;;;;;;2.78;61.67;100688.69;3567121;40;20065;-77
2021/04/09 04:57:26;;;;;;;25.17;13.60;;;;;;;2.98;61.53;100684.38;3566093;40;20084;-77
2021/04/09 04:59:53;;;;;;;23.65;12.32;;;;;;;3.24;61.11;100689.53;3562892;40;20134;-76
2021/04/09 05:02:19;;;;;;;26.88;12.73;;;;;;;3.60;60.51;100692.03;3558337;40;20132;-77
2021/04/09 05:06:45;;;;;;;18.92;10.77;;;;;;;3.73;60.53;100694.56;3614657;39;20426;-77
2021/04/09 05:09:11;;;;;;;20.63;12.13;;;;;;;3.95;60.07;100694.47;3606164;39;20024;-77
2021/04/09 05:11:37;;;;;;;19.00;10.20;;;;;;;4.38;59.48;100690.84;3607056;39;20079;-76
2021/04/09 05:14:04;;;;;;;23.70;11.77;;;;;;;4.87;58.30;100696.53;3604774;39;20040;-77
2021/04/09 05:16:30;;;;;;;19.38;11.38;;;;;;;5.15;57.68;100691.97;3605446;39;20362;-75
2021/04/09 05:18:57;;;;;;;22.13;12.50;;;;;;;5.02;58.06;100693.81;3597396;39;20483;-76
2021/04/09 05:21:23;;;;;;;19.45;11.73;;;;;;;4.97;58.25;100689.50;3603103;39;20044;-77
2021/04/09 05:23:50;;;;;;;23.45;12.80;;;;;;;4.96;58.30;100691.25;3601181;39;20072;-77
2021/04/09 05:26:17;;;;;;;22.73;11.60;;;;;;;5.09;57.90;100692.88;3603855;39;20193;-76
2021/04/09 05:28:43;;;;;;;20.88;11.90;;;;;;;5.17;57.57;100691.06;3605620;39;20390;-77
2021/04/09 05:31:09;;;;;;;18.58;9.85;;;;;;;5.24;57.22;100691.03;3606072;39;20032;-77
2021/04/09 05:33:36;;;;;;;19.17;10.18;;;;;;;5.51;56.70;100688.13;3605788;39;20039;-77
2021/04/09 05:36:03;;;;;;;18.48;10.27;;;;;;;5.88;55.86;100687.72;3606997;39;20080;-77
2021/04/09 05:38:29;;;;;;;19.70;9.75;;;;;;;6.12;55.18;100684.84;3605194;39;20048;-74
2021/04/09 05:40:56;;;;;;;18.13;10.70;;;;;;;6.75;54.16;100682.19;3598219;39;20032;-75
2021/04/09 05:43:23;;;;;;;26.00;14.35;;;;;;;7.42;52.71;100686.25;3594990;39;20257;-75
2021/04/09 05:45:49;;;;;;;24.20;12.63;;;;;;;7.95;51.68;100684.34;3595726;40;20255;-75
2021/04/09 05:48:16;;;;;;;22.65;12.63;;;;;;;8.04;51.36;100684.16;3595724;39;20201;-74
2021/04/09 05:50:43;;;;;;;22.77;12.90;;;;;;;7.68;52.17;100687.50;3594867;39;20037;-74
2021/04/09 05:53:09;;;;;;;20.48;11.52;;;;;;;7.43;52.41;100676.66;3595063;39;20066;-74
2021/04/09 05:55:35;;;;;;;27.05;14.32;;;;;;;7.82;51.69;100681.13;3596406;39;20048;-74
2021/04/09 05:58:02;;;;;;;21.30;12.30;;;;;;;8.40;50.18;100679.06;3600645;39;20036;-74
2021/04/09 06:00:29;;;;;;;21.08;10.45;;;;;;;8.27;50.28;100683.66;3606545;39;20028;-74
2021/04/09 06:02:55;;;;;;;20.63;12.05;;;;;;;8.24;50.30;100686.34;3606118;39;20035;-74
2021/04/09 06:05:22;;;;;;;21.60;11.00;;;;;;;8.18;50.07;100689.94;3606223;39;20062;-74
2021/04/09 06:07:48;;;;;;;22.95;12.05;;;;;;;8.15;50.10;100679.56;3606068;39;20281;-74
2021/04/09 06:10:15;;;;;;;28.08;15.48;;;;;;;8.24;50.01;100679.34;3606663;39;20136;-74
2021/04/09 06:12:42;;;;;;;26.88;13.60;;;;;;;8.30;49.57;100673.13;3606376;39;20040;-74
2021/04/09 06:15:13;;;;;;;38.00;16.92;;;;;;;8.52;48.81;100668.31;3606217;39;20338;-74
2021/04/09 06:17:39;;;;;;;52.53;24.00;;;;;;;9.26;47.36;100670.84;3600527;39;20113;-74
2021/04/09 06:20:07;;;;;;;37.80;18.58;;;;;;;9.52;46.48;100661.41;3599668;39;20047;-75
2021/04/09 06:22:34;;;;;;;60.10;26.95;;;;;;;9.89;45.93;100666.50;3597983;39;20117;-74
2021/04/09 06:25:00;;;;;;;26.15;13.88;;;;;;;10.30;45.13;100662.69;3599121;39;20035;-74
2021/04/09 06:27:27;;;;;;;36.58;19.25;;;;;;;10.92;44.00;100665.91;3594999;39;20410;-75
2021/04/09 06:29:54;;;;;;;25.30;13.20;;;;;;;11.80;42.57;100667.25;3588561;40;20094;-74
2021/04/09 06:32:21;;;;;;;24.05;11.75;;;;;;;12.91;40.49;100667.31;3589706;40;20039;-74
2021/04/09 06:34:47;;;;;;;24.20;12.10;;;;;;;13.83;38.69;100661.56;3595603;39;20036;-75
2021/04/09 06:37:13;;;;;;;20.77;11.05;;;;;;;13.52;39.29;100667.31;3597650;39;20036;-74
2021/04/09 06:39:40;;;;;;;15.63;9.48;;;;;;;13.52;39.06;100675.22;3598638;39;20035;-72
2021/04/09 06:42:08;;;;;;;20.38;10.88;;;;;;;14.25;37.78;100664.00;3598491;40;20029;-73
2021/04/09 06:44:35;;;;;;;24.85;11.70;;;;;;;16.28;34.44;100655.44;3599249;39;20036;-73
2021/04/09 06:47:01;;;;;;;17.38;9.20;;;;;;;18.06;31.93;100665.25;3599030;40;20036;-74
2021/04/09 06:49:29;;;;;;;13.60;9.73;;;;;;;19.41;29.91;100671.44;3597971;40;20476;-72
2021/04/09 06:51:55;;;;;;;17.50;10.90;;;;;;;20.88;27.92;100667.16;3598848;39;20064;-70
2021/04/09 06:54:24;;;;;;;20.15;10.15;;;;;;;21.12;27.10;100665.31;3598912;39;20032;-72
2021/04/09 06:56:51;;;;;;;15.68;9.82;;;;;;;22.23;25.97;100662.94;3596842;40;20049;-72
2021/04/09 06:59:22;;;;;;;19.00;10.18;;;;;;;23.23;24.37;100656.44;3598844;39;20417;-71
2021/04/09 07:01:50;;;;;;;23.20;10.20;;;;;;;24.14;23.01;100647.63;3598110;40;20035;-73
2021/04/09 07:04:17;;;;;;;12.63;8.50;;;;;;;24.85;22.47;100653.72;3597954;39;20032;-74
2021/04/09 07:06:44;;;;;;;17.58;10.82;;;;;;;25.37;21.83;100647.06;3577635;40;20037;-74
2021/04/09 07:09:13;;;;;;;16.35;9.90;;;;;;;25.67;21.22;100647.84;3568236;40;20426;-74
2021/04/09 07:11:39;;;;;;;15.82;8.98;;;;;;;26.20;20.49;100634.63;3568719;40;20037;-73
2021/04/09 07:14:06;;;;;;;13.57;8.98;;;;;;;27.06;19.55;100650.34;3577950;40;20045;-72
2021/04/09 07:16:33;;;;;;;15.85;10.45;;;;;;;28.33;18.06;100635.31;3578484;40;20477;-73
2021/04/09 07:19:03;;;;;;;13.93;9.15;;;;;;;29.04;17.17;100638.31;3577344;40;20021;-72
2021/04/09 07:21:31;;;;;;;15.65;9.80;;;;;;;29.40;16.82;100632.53;3578081;40;20390;-73
2021/04/09 07:24:21;;;;;;;19.30;9.48;;;;;;;29.67;17.17;100629.47;3577454;40;20072;-74
2021/04/09 07:26:49;;;;;;;12.67;8.60;;;;;;;30.31;16.40;100624.00;3576167;40;20039;-74
2021/04/09 07:29:48;;;;;;;13.52;9.65;;;;;;;29.67;16.65;100628.63;3568269;40;20037;-75
2021/04/09 07:32:28;;;;;;;13.80;8.60;;;;;;;29.44;16.26;100629.31;3567802;40;20038;-74
2021/04/09 07:34:55;;;;;;;;;;;;;;;30.03;17.64;100624.47;3567819;40;20077;-76
2021/04/09 07:37:23;;;;;;;14.05;9.35;;;;;;;29.59;16.23;100616.00;3566633;40;19941;-77
2021/04/09 07:39:55;;;;;;;15.13;11.00;;;;;;;29.63;15.66;100621.88;3568867;40;20412;-76
2021/04/09 07:42:29;;;;;;;17.13;10.45;;;;;;;29.58;15.51;100613.47;3567122;40;20446;-76
2021/04/09 07:44:58;;;;;;;12.45;9.30;;;;;;;29.36;15.51;100613.16;3567880;40;20037;-76
2021/04/09 07:47:25;;;;;;;22.02;12.63;;;;;;;29.24;15.48;100617.19;3567184;40;20054;-76
2021/04/09 07:49:59;;;;;;;19.63;12.32;;;;;;;29.38;15.11;100610.28;3574305;40;20118;-75
2021/04/09 07:52:26;;;;;;;13.43;9.48;;;;;;;29.16;15.35;100592.94;3576531;40;20345;-77
2021/04/09 07:54:53;;;;;;;15.80;9.65;;;;;;;29.14;14.79;100589.53;3576142;40;20041;-75
2021/04/09 07:57:29;;;;;;;16.65;11.02;;;;;;;29.52;14.68;100593.38;3575528;40;20108;-76
2021/04/09 07:59:55;;;;;;;16.90;10.93;;;;;;;30.08;13.84;100594.19;3569968;40;20040;-75
2021/04/09 08:02:39;;;;;;;14.95;10.00;;;;;;;30.12;13.89;100583.88;3576931;40;20040;-75
2021/04/09 08:05:06;;;;;;;14.68;10.02;;;;;;;30.61;13.54;100568.19;3585051;40;20135;-74
2021/04/09 08:07:34;;;;;;;15.50;10.30;;;;;;;31.89;12.65;100563.53;3597876;39;20032;-78
2021/04/09 08:10:01;;;;;;;12.63;7.60;;;;;;;32.51;12.50;100564.88;3598861;39;20068;-75
2021/04/09 08:12:29;;;;;;;16.63;9.18;;;;;;;32.12;12.11;100563.38;3597572;39;20039;-78
2021/04/09 08:15:10;;;;;;;17.08;9.32;;;;;;;32.09;11.92;100558.34;3587819;40;20140;-77
2021/04/09 08:17:37;;;;;;;16.92;10.27;;;;;;;31.92;12.09;100548.75;3587809;40;20049;-73
2021/04/09 08:20:10;;;;;;;14.48;9.75;;;;;;;32.37;11.44;100547.63;3588962;40;20041;-73
2021/04/09 08:22:37;;;;;;;15.52;8.65;;;;;;;32.97;11.66;100557.16;3587407;40;20028;-74
2021/04/09 08:25:06;;;;;;;13.13;8.43;;;;;;;33.71;11.06;100548.44;3586737;40;20040;-74
2021/04/09 08:27:34;;;;;;;14.00;7.95;;;;;;;33.26;10.54;100546.09;3586501;40;20033;-73
2021/04/09 08:30:01;;;;;;;16.55;9.60;;;;;;;29.05;13.54;100550.06;3587556;40;20064;-74
2021/04/09 08:32:28;;;;;;;14.75;7.85;;;;;;;30.53;11.96;100542.00;3587192;40;20094;-74
2021/04/09 08:34:55;;;;;;;12.32;7.30;;;;;;;31.40;11.75;100536.16;3587564;40;20072;-73
2021/04/09 08:37:21;;;;;;;13.57;8.00;;;;;;;31.56;11.27;100533.25;3588419;40;20033;-74
2021/04/09 08:39:50;;;;;;;11.88;7.00;;;;;;;31.82;11.41;100530.06;3588062;40;20037;-75
2021/04/09 08:42:18;;;;;;;9.95;7.00;;;;;;;31.52;11.57;100518.41;3588699;40;20043;-74
2021/04/09 08:44:45;;;;;;;13.50;7.65;;;;;;;31.85;11.31;100526.97;3587726;40;20065;-74
2021/04/09 08:47:15;;;;;;;9.30;6.35;;;;;;;31.93;11.10;100528.75;3588511;40;20132;-74
2021/04/09 08:49:42;;;;;;;11.23;6.40;;;;;;;31.19;11.60;100512.53;3588705;40;20029;-73
2021/04/09 08:52:09;;;;;;;9.68;7.13;;;;;;;30.20;11.97;100517.09;3588509;40;20064;-74
2021/04/09 08:54:48;;;;;;;10.80;6.82;;;;;;;30.69;11.85;100518.59;3588524;40;20038;-74
2021/04/09 08:57:26;;;;;;;10.82;7.03;;;;;;;31.05;11.78;100516.03;3587867;40;20061;-74
2021/04/09 09:00:06;;;;;;;12.90;6.60;;;;;;;30.83;11.73;100506.97;3597795;40;20072;-74
2021/04/09 09:02:44;;;;;;;;;;;;;;;30.97;12.58;100514.25;3597097;40;20128;-73
2021/04/09 09:05:13;;;;;;;11.70;6.72;;;;;;;31.47;11.61;100501.88;3593774;39;19972;-73
2021/04/09 09:07:56;;;;;;;11.73;7.32;;;;;;;31.25;11.20;100495.53;3591505;39;20036;-74
2021/04/09 09:10:54;;;;;;;10.70;6.70;;;;;;;30.59;11.50;100489.88;3594302;40;20393;-73
2021/04/09 09:13:26;;;;;;;11.00;6.72;;;;;;;29.92;12.24;100486.13;3587044;40;20088;-73
2021/04/09 09:16:12;;;;;;;9.90;7.07;;;;;;;30.28;11.80;100491.84;3586598;40;20408;-75
2021/04/09 09:19:03;;;;;;;11.40;6.90;;;;;;;31.12;11.34;100462.81;3595551;40;20064;-78
2021/04/09 09:22:10;;;;;;;12.77;7.35;;;;;;;26.32;14.34;100492.81;3590469;40;20032;-74
2021/04/09 09:25:01;;;;;;;10.40;6.25;;;;;;;26.67;13.73;100459.72;3587511;40;20045;-74
2021/04/09 09:27:45;;;;;;;10.30;5.90;;;;;;;28.01;12.85;100467.06;3590713;40;20072;-75
2021/04/09 09:30:38;;;;;;;7.97;5.80;;;;;;;28.30;12.58;100460.38;3589462;40;20037;-74
2021/04/09 09:33:34;;;;;;;8.50;5.53;;;;;;;28.66;12.43;100455.47;3591282;40;20288;-74
2021/04/09 09:36:03;;;;;;;7.35;5.68;;;;;;;28.92;12.11;100449.88;3593206;40;20036;-80
2021/04/09 09:38:49;;;;;;;13.05;5.20;;;;;;;28.21;12.46;100446.03;3592287;40;20048;-73
2021/04/09 09:41:44;;;;;;;10.10;5.85;;;;;;;27.53;12.49;100441.69;3594206;40;20048;-75
2021/04/09 09:44:28;;;;;;;10.65;5.72;;;;;;;26.85;13.02;100444.34;3589125;40;20040;-75
2021/04/09 09:46:57;;;;;;;7.55;5.18;;;;;;;25.83;13.76;100428.72;3595185;40;20064;-76
2021/04/09 09:49:25;;;;;;;8.73;5.57;;;;;;;24.97;14.49;100435.31;3590202;40;20048;-73
2021/04/09 09:51:51;;;;;;;10.85;6.28;;;;;;;23.82;15.59;100425.59;3590062;40;20099;-74
2021/04/09 09:54:22;;;;;;;10.20;6.22;;;;;;;21.61;17.07;100438.31;3594648;39;20040;-73
2021/04/09 09:56:48;;;;;;;8.43;5.90;;;;;;;20.32;18.41;100436.00;3595399;39;20036;-74
2021/04/09 09:59:17;;;;;;;9.48;5.57;;;;;;;19.24;18.98;100432.50;3594548;40;20083;-73
2021/04/09 10:01:49;;;;;;;9.90;5.45;;;;;;;18.35;20.50;100419.22;3592521;40;20059;-74
2021/04/09 10:04:17;;;;;;;8.63;5.57;;;;;;;17.83;21.25;100418.22;3592355;40;20039;-74
2021/04/09 10:06:49;;;;;;;13.85;6.38;;;;;;;17.55;21.43;100413.00;3593336;40;20138;-73
2021/04/09 10:09:24;;;;;;;9.18;5.13;;;;;;;17.09;21.66;100412.44;3594990;39;20033;-75
2021/04/09 10:11:50;;;;;;;8.00;4.80;;;;;;;16.73;21.84;100389.94;3593598;40;20028;-74
2021/04/09 10:14:18;;;;;;;8.02;4.72;;;;;;;16.40;22.14;100411.31;3592781;39;20433;-74
2021/04/09 10:16:46;;;;;;;8.00;4.95;;;;;;;16.04;22.55;100409.91;3593423;40;20080;-73
2021/04/09 10:19:13;;;;;;;8.45;5.78;;;;;;;15.75;22.89;100405.44;3593772;40;20371;-75
2021/04/09 10:21:41;;;;;;;8.25;5.40;;;;;;;15.78;23.01;100394.69;3596078;39;20032;-75
2021/04/09 10:24:09;;;;;;;9.00;4.95;;;;;;;15.68;23.17;100396.19;3593514;39;20037;-75
2021/04/09 10:26:37;;;;;;;9.98;5.93;;;;;;;15.40;23.15;100392.41;3596332;40;20040;-75
2021/04/09 10:29:22;;;;;;;7.40;5.30;;;;;;;15.00;23.73;100388.50;3594460;39;20320;-73
2021/04/09 10:31:49;;;;;;;7.45;4.85;;;;;;;14.73;23.73;100380.25;3592924;40;20085;-73
2021/04/09 10:34:19;;;;;;;8.02;5.90;;;;;;;14.40;24.31;100387.28;3594497;39;20112;-74
2021/04/09 10:36:47;;;;;;;7.85;4.65;;;;;;;14.27;24.58;100387.03;3595334;40;20047;-73
2021/04/09 10:39:15;;;;;;;9.85;5.78;;;;;;;14.08;24.67;100388.91;3590525;40;20036;-73
2021/04/09 10:41:45;;;;;;;18.48;8.52;;;;;;;13.92;25.00;100389.66;3592669;39;20415;-73
2021/04/09 10:44:16;;;;;;;13.95;8.27;;;;;;;13.78;25.32;100391.31;3596381;40;20074;-79
2021/04/09 10:46:44;;;;;;;12.73;8.10;;;;;;;13.89;25.29;100394.25;3595017;40;20032;-76
2021/04/09 10:49:12;;;;;;;11.50;6.55;;;;;;;13.99;25.41;100390.25;3596331;40;20036;-78
2021/04/09 10:51:40;;;;;;;11.27;5.78;;;;;;;13.94;25.27;100384.31;3596159;39;20367;-81
2021/04/09 10:54:10;;;;;;;10.80;7.10;;;;;;;14.04;25.16;100375.91;3596081;40;20033;-78
2021/04/09 10:56:37;;;;;;;10.88;6.50;;;;;;;14.08;25.38;100373.94;3595773;39;20036;-76
2021/04/09 10:59:08;;;;;;;10.05;6.25;;;;;;;13.98;25.54;100352.50;3593254;39;20044;-77
2021/04/09 11:01:35;;;;;;;9.17;6.07;;;;;;;13.93;25.57;100356.25;3593511;40;20041;-76
2021/04/09 11:04:01;;;;;;;11.05;6.32;;;;;;;13.91;25.53;100348.44;3592938;39;20040;-78
2021/04/09 11:06:28;;;;;;;7.00;5.22;;;;;;;13.80;25.91;100344.66;3593801;40;20433;-81
2021/04/09 11:08:59;;;;;;;9.88;5.40;;;;;;;13.81;25.89;100346.34;3594773;39;20036;-77
2021/04/09 11:11:31;;;;;;;7.32;5.25;;;;;;;13.72;25.93;100332.69;3595790;39;20040;-76
2021/04/09 11:14:03;;;;;;;6.78;4.53;;;;;;;13.71;26.08;100328.34;3595890;39;20039;-78
2021/04/09 11:16:29;;;;;;;11.73;5.20;;;;;;;13.69;26.05;100342.53;3591195;40;20064;-76
2021/04/09 11:18:57;;;;;;;9.50;4.93;;;;;;;13.69;26.01;100332.00;3592737;40;20047;-77
2021/04/09 11:21:46;;;;;;;9.50;5.85;;;;;;;13.85;26.04;100337.38;3595260;39;20117;-77
2021/04/09 11:24:15;;;;;;;10.48;5.35;;;;;;;14.03;26.06;100333.78;3592712;40;20036;-78
2021/04/09 11:26:44;;;;;;;10.15;5.63;;;;;;;14.06;26.22;100332.78;3595211;40;20043;-78
2021/04/09 11:29:19;;;;;;;8.15;5.15;;;;;;;14.08;25.93;100336.19;3594783;40;20039;-78
2021/04/09 11:31:45;;;;;;;7.45;5.03;;;;;;;14.09;25.91;100324.72;3593198;40;20042;-78